Weather History for KBPC - February, 2013

Change the Weather History Date:

Thursday, February 7, 2013

  Actual Average Record
Temperature  
Mean Temperature 44 °F -  
Max Temperature 57 °F - - ()
Min Temperature 30 °F - - ()
Degree Days  
Heating Degree Days 22    
Moisture  
Dew Point 27 °F    
Average Humidity 50    
Maximum Humidity 87    
Minimum Humidity 27    
Precipitation  
Precipitation 0.00 in - - ()
Sea Level Pressure  
Sea Level Pressure 30.03 in    
Wind  
Wind Speed 12 mph (North)    
Max Wind Speed 30 mph    
Max Gust Speed 37 mph    
Visibility 10 miles    
Events      
Averages and records for this station are not official NWS values.
T = Trace of Precipitation, MM = Missing Value Source: NWS Daily Summary

Daily Weather History Graph

Daily Weather History Graph

Search for Another Location

Airport or City:

Trip Planner

Search our weather history database for the weather conditions in past years. The results will help you decide how hot, cold, wet, or windy it might be!

Date:

Astronomy

Feb. 07, 2013 Rise Set
Actual Time 7:39 AM CST 6:17 PM CST
Civil Twilight 7:12 AM CST 6:44 PM CST
Nautical Twilight 6:42 AM CST 7:14 PM CST
Astronomical Twilight 6:12 AM CST 7:44 PM CST
Moon 5:17 AM CST (2/7) 3:47 PM CST (2/7)
Length of Visible Light 11h 31m
Length of Day
10h 38m
Waning Crescent, 9% of the Moon is Illuminated
Feb 7
Waning Crescent
Feb 10
New
Feb 17
First Quarter
Feb 25
Full
Mar 4
Last Quarter

Hourly Weather History & Observations

Time (CST) Temp. Windchill Dew Point Humidity Pressure Visibility Wind Dir Wind Speed Gust Speed Precip Events Conditions
12:15 AM 50.0 °F - 33.8 °F 54% 29.74 in 10.0 mi SSW 4.6 mph - N/A   Clear
12:35 AM 50.0 °F - 33.8 °F 54% 29.74 in 10.0 mi SSW 4.6 mph - N/A   Clear
12:55 AM 44.6 °F 41.4 °F 32.0 °F 61% 29.75 in 10.0 mi West 5.8 mph - N/A   Clear
1:15 AM 44.6 °F 41.4 °F 30.2 °F 57% 29.75 in 10.0 mi WSW 5.8 mph - N/A   Clear
1:35 AM 41.0 °F 35.8 °F 30.2 °F 65% 29.75 in 10.0 mi WSW 8.1 mph - N/A   Clear
1:55 AM 41.0 °F 36.4 °F 30.2 °F 65% 29.76 in 10.0 mi West 6.9 mph - N/A   Clear
2:15 AM 41.0 °F 35.2 °F 26.6 °F 57% 29.78 in 10.0 mi NNW 9.2 mph - N/A   Clear
2:35 AM 41.0 °F 34.3 °F 30.2 °F 65% 29.78 in 10.0 mi North 11.5 mph - N/A   Clear
2:55 AM 41.0 °F 33.1 °F 32.0 °F 70% 29.78 in 10.0 mi North 15.0 mph 19.6 mph N/A   Clear
3:15 AM 42.8 °F 35.8 °F 35.6 °F 76% 29.79 in 10.0 mi North 13.8 mph - N/A   Clear
3:35 AM 42.8 °F 35.8 °F 37.4 °F 81% 29.80 in 10.0 mi North 13.8 mph - N/A   Clear
3:55 AM 42.8 °F 35.4 °F 39.2 °F 87% 29.82 in 10.0 mi NNW 15.0 mph 24.2 mph N/A   Clear
4:15 AM 44.6 °F 37.8 °F 39.2 °F 81% 29.82 in 10.0 mi North 15.0 mph - N/A   Scattered Clouds
4:35 AM 44.6 °F 37.8 °F 41.0 °F 87% 29.85 in 10.0 mi North 15.0 mph 21.9 mph N/A   Mostly Cloudy
4:55 AM 46.4 °F 39.8 °F 32.0 °F 57% 29.86 in 10.0 mi North 16.1 mph 26.5 mph N/A   Overcast
5:15 AM 46.4 °F 39.5 °F 28.4 °F 50% 29.87 in 10.0 mi North 17.3 mph 26.5 mph N/A   Overcast
5:35 AM 44.6 °F 36.9 °F 28.4 °F 53% 29.88 in 10.0 mi North 18.4 mph 28.8 mph N/A   Overcast
6:15 AM 44.6 °F 39.2 °F 28.4 °F 53% 29.91 in 10.0 mi North 10.4 mph 21.9 mph N/A   Clear
6:35 AM 44.6 °F 37.2 °F 28.4 °F 53% 29.93 in 10.0 mi North 17.3 mph 25.3 mph N/A   Clear
6:55 AM 42.8 °F 36.2 °F 28.4 °F 57% 29.94 in 10.0 mi North 12.7 mph 19.6 mph N/A   Clear
7:15 AM 42.8 °F 34.8 °F 28.4 °F 57% 29.95 in 10.0 mi North 17.3 mph 24.2 mph N/A   Mostly Cloudy
7:35 AM 42.8 °F 34.5 °F 28.4 °F 57% 29.97 in 10.0 mi North 18.4 mph 25.3 mph N/A   Overcast
8:15 AM 44.6 °F 37.8 °F 30.2 °F 57% 30.01 in 10.0 mi North 15.0 mph 19.6 mph N/A   Overcast
8:35 AM 44.6 °F 38.1 °F 30.2 °F 57% 30.03 in 10.0 mi North 13.8 mph 21.9 mph N/A   Overcast
8:55 AM 44.6 °F 36.9 °F 30.2 °F 57% 30.05 in 10.0 mi North 18.4 mph 25.3 mph N/A   Overcast
9:15 AM 44.6 °F 37.2 °F 30.2 °F 57% 30.06 in 10.0 mi North 17.3 mph 23.0 mph N/A   Overcast
9:35 AM 44.6 °F 36.6 °F 30.2 °F 57% 30.07 in 10.0 mi North 19.6 mph 27.6 mph N/A   Overcast
9:55 AM 44.6 °F 36.1 °F 28.4 °F 53% 30.07 in 10.0 mi North 21.9 mph 32.2 mph N/A   Overcast
10:15 AM 46.4 °F 38.3 °F 28.4 °F 50% 30.09 in 10.0 mi North 23.0 mph 33.4 mph N/A   Mostly Cloudy
10:35 AM 46.4 °F 37.7 °F 28.4 °F 50% 30.09 in 10.0 mi North 26.5 mph 32.2 mph N/A   Overcast
10:55 AM 46.4 °F 38.5 °F 28.4 °F 50% 30.10 in 10.0 mi North 21.9 mph 29.9 mph N/A   Overcast
11:15 AM 48.2 °F - 26.6 °F 43% 30.10 in 10.0 mi North 20.7 mph 33.4 mph N/A   Mostly Cloudy
11:35 AM 50.0 °F - 26.6 °F 40% 30.11 in 10.0 mi North 24.2 mph 32.2 mph N/A   Mostly Cloudy
11:55 AM 51.8 °F - 24.8 °F 35% 30.10 in 10.0 mi NNE 29.9 mph 34.5 mph N/A   Scattered Clouds
12:15 PM 51.8 °F - 23.0 °F 33% 30.10 in 10.0 mi North 25.3 mph 33.4 mph N/A   Clear
12:35 PM 53.6 °F - 23.0 °F 30% 30.10 in 10.0 mi NNE 21.9 mph 36.8 mph N/A   Clear
12:55 PM 53.6 °F - 21.2 °F 28% 30.10 in 10.0 mi NNE 24.2 mph 35.7 mph N/A   Clear
1:15 PM 53.6 °F - 23.0 °F 30% 30.10 in 10.0 mi NNE 24.2 mph 35.7 mph N/A   Clear
1:35 PM 55.4 °F - 23.0 °F 29% 30.10 in 10.0 mi NNE 17.3 mph 33.4 mph N/A   Clear
1:55 PM 55.4 °F - 23.0 °F 29% 30.10 in 10.0 mi NNE 21.9 mph 28.8 mph N/A   Clear
2:15 PM 55.4 °F - 23.0 °F 29% 30.09 in 10.0 mi NNE 23.0 mph 31.1 mph N/A   Clear
2:35 PM 55.4 °F - 23.0 °F 29% 30.09 in 10.0 mi NNE 23.0 mph 32.2 mph N/A   Clear
2:55 PM 55.4 °F - 23.0 °F 29% 30.08 in 10.0 mi North 21.9 mph 29.9 mph N/A   Clear
3:15 PM 57.2 °F - 23.0 °F 27% 30.08 in 10.0 mi NNE 18.4 mph 28.8 mph N/A   Clear
3:35 PM 55.4 °F - 23.0 °F 29% 30.09 in 10.0 mi North 20.7 mph 28.8 mph N/A   Clear
3:55 PM 57.2 °F - 23.0 °F 27% 30.09 in 10.0 mi NNE 20.7 mph 25.3 mph N/A   Clear
4:15 PM 57.2 °F - 24.8 °F 29% 30.09 in 10.0 mi North 17.3 mph 23.0 mph N/A   Clear
4:35 PM 55.4 °F - 26.6 °F 33% 30.10 in 10.0 mi North 17.3 mph 25.3 mph N/A   Clear
4:55 PM 55.4 °F - 26.6 °F 33% 30.10 in 10.0 mi North 16.1 mph 21.9 mph N/A   Clear
5:15 PM 55.4 °F - 26.6 °F 33% 30.11 in 10.0 mi North 16.1 mph 25.3 mph N/A   Clear
5:35 PM 53.6 °F - 24.8 °F 33% 30.12 in 10.0 mi North 13.8 mph - N/A   Clear
5:55 PM 53.6 °F - 24.8 °F 33% 30.13 in 10.0 mi North 13.8 mph - N/A   Clear
6:15 PM 51.8 °F - 24.8 °F 35% 30.14 in 10.0 mi North 11.5 mph - N/A   Clear
6:35 PM 50.0 °F - 24.8 °F 37% 30.15 in 10.0 mi North 8.1 mph - N/A   Clear
6:55 PM 46.4 °F 42.9 °F 24.8 °F 43% 30.16 in 10.0 mi North 6.9 mph - N/A   Clear
7:15 PM 46.4 °F 43.5 °F 26.6 °F 46% 30.17 in 10.0 mi North 5.8 mph - N/A   Clear
7:35 PM 44.6 °F 41.4 °F 26.6 °F 49% 30.17 in 10.0 mi North 5.8 mph - N/A   Clear
7:55 PM 41.0 °F 38.0 °F 24.8 °F 53% 30.18 in 10.0 mi North 4.6 mph - N/A   Clear
8:15 PM 42.8 °F 40.1 °F 24.8 °F 49% 30.18 in 10.0 mi North 4.6 mph - N/A   Clear
8:35 PM 41.0 °F - 24.8 °F 53% 30.19 in 10.0 mi Calm Calm - N/A   Clear
8:55 PM 41.0 °F - 24.8 °F 53% 30.19 in 10.0 mi Calm Calm - N/A   Clear
9:15 PM 41.0 °F - 24.8 °F 53% 30.20 in 10.0 mi Calm Calm - N/A   Clear
9:35 PM 35.6 °F - 23.0 °F 60% 30.20 in 10.0 mi Calm Calm - N/A   Clear
10:15 PM 32.0 °F - 23.0 °F 69% 30.20 in 10.0 mi Calm Calm - N/A   Clear
10:35 PM 32.0 °F - 23.0 °F 69% 30.21 in 10.0 mi Calm Calm - N/A   Clear
10:55 PM 32.0 °F - 23.0 °F 69% 30.21 in 10.0 mi Calm Calm - N/A   Clear
11:15 PM 30.2 °F 26.7 °F 21.2 °F 69% 30.22 in 10.0 mi SSW 3.5 mph - N/A   Clear
11:35 PM 30.2 °F 25.4 °F 23.0 °F 75% 30.22 in 10.0 mi South 4.6 mph - N/A   Clear